Lil Al Cenac — WDC2764 — position and weather

sailwx.info

Track history (hours):
 
Tides and Currents Weather Stations Pressure Air Temp Water Temp Dewpoint Dewpoint Depression Visibility Wind Speed Wind Dir Waves Ship Positions

Lil Al Cenac

Owner: Lil Al's Towing, Inc., Houma, LA. More information available from US FCC via Universal Licensing System and Coast Guard Vessel Documentation Center.

Last reported at 2017-Sep-20 00:00 UTC. Time now 2017-Sep-20 00:16 UTC.
Position N 30°04' W 093°21'.

Length 16 m; draft 2.3 m.

MMSI: 366997420.

Date/timePositionNaut miles runAvg speedWind from/ knotsBaromVisibWave heightAir tempDewpointWater temp
2017-Sep-20 00:00N 30°04' W 093°21'0 0.0
2017-Sep-19 23:30N 30°04' W 093°21'1 1.1
2017-Sep-19 23:00N 30°04' W 093°22'1 1.0
2017-Sep-19 22:30N 30°04' W 093°21'1 2.9
2017-Sep-19 22:00N 30°05' W 093°20'2 3.3
2017-Sep-19 21:30N 30°06' W 093°20'2 3.4
2017-Sep-19 21:00N 30°08' W 093°20'2 3.4
2017-Sep-19 20:30N 30°10' W 093°19'2 3.8
2017-Sep-19 20:00N 30°11' W 093°18'0 0.9
2017-Sep-19 19:30N 30°11' W 093°19'3 6.8
2017-Sep-19 19:00N 30°08' W 093°20'3 6.9
2017-Sep-19 18:30N 30°04' W 093°21'1 1.8
2017-Sep-19 18:00N 30°04' W 093°21'0 0.0
2017-Sep-19 17:30N 30°04' W 093°21'1 1.1
2017-Sep-19 17:00N 30°04' W 093°22'0 0.6
2017-Sep-19 16:30N 30°04' W 093°22'0 0.0
2017-Sep-19 16:00N 30°04' W 093°22'0 0.5
2017-Sep-19 15:30N 30°04' W 093°21'0 0.0
2017-Sep-19 15:00N 30°04' W 093°21'0 0.0
2017-Sep-19 14:30N 30°04' W 093°21'0 0.0
2017-Sep-19 14:00N 30°04' W 093°21'0 0.0
2017-Sep-19 13:30N 30°04' W 093°21'0 0.0
2017-Sep-19 13:00N 30°04' W 093°21'0 0.0
2017-Sep-19 12:30N 30°04' W 093°21'0 0.0
2017-Sep-19 12:00N 30°04' W 093°21'0 0.0
2017-Sep-19 11:30N 30°04' W 093°21'0 0.0
2017-Sep-19 11:00N 30°04' W 093°21'0 0.0
2017-Sep-19 10:30N 30°04' W 093°21'0 0.0
2017-Sep-19 10:00N 30°04' W 093°21'0 0.0
2017-Sep-19 09:30N 30°04' W 093°21'0 0.0
2017-Sep-19 09:00N 30°04' W 093°21'0 0.0
2017-Sep-19 08:30N 30°04' W 093°21'2 3.3
2017-Sep-19 08:00N 30°05' W 093°20'3 6.2
2017-Sep-19 07:30N 30°08' W 093°20'3 6.3
2017-Sep-19 07:00N 30°11' W 093°19'2 5.0
2017-Sep-19 06:30N 30°13' W 093°17'0 0.3
2017-Sep-19 06:00N 30°13' W 093°17'2 3.9
2017-Sep-19 05:30N 30°11' W 093°18'2 4.1
2017-Sep-19 05:00N 30°09' W 093°20'2 4.4
2017-Sep-19 04:30N 30°07' W 093°20'2 3.9
2017-Sep-19 04:00N 30°05' W 093°20'3 5.6
2017-Sep-19 03:30N 30°04' W 093°22'0 0.0
2017-Sep-19 03:00N 30°04' W 093°22'1 1.2
2017-Sep-19 02:30N 30°04' W 093°21'1 1.2
2017-Sep-19 02:00N 30°04' W 093°22'0 0.0
2017-Sep-19 01:30N 30°04' W 093°22'0 0.0
2017-Sep-19 01:00N 30°04' W 093°22'0 0.0
2017-Sep-19 00:30N 30°04' W 093°22'1 1.2
2017-Sep-19 00:00N 30°04' W 093°21'0 0.0
2017-Sep-18 23:30N 30°04' W 093°21'0 0.0
2017-Sep-18 23:00N 30°04' W 093°21'0 0.0
2017-Sep-18 22:30N 30°04' W 093°21'0 0.0
2017-Sep-18 22:00N 30°04' W 093°21'0 0.0
2017-Sep-18 21:30N 30°04' W 093°21'1 1.2
2017-Sep-18 21:00N 30°04' W 093°22'1 1.2
2017-Sep-18 20:30N 30°04' W 093°21'0 0.0
2017-Sep-18 20:00N 30°04' W 093°21'0 0.0
2017-Sep-18 19:30N 30°04' W 093°21'0 0.0
2017-Sep-18 19:00N 30°04' W 093°21'0 0.0
2017-Sep-18 18:30N 30°04' W 093°21'0 0.0
2017-Sep-18 18:00N 30°04' W 093°21'0 0.0
2017-Sep-18 17:30N 30°04' W 093°21'0 0.0
2017-Sep-18 17:00N 30°04' W 093°21'0 0.0
2017-Sep-18 16:30N 30°04' W 093°21'0 0.0
2017-Sep-18 16:00N 30°04' W 093°21'0 0.0
2017-Sep-18 15:30N 30°04' W 093°21'0 0.0
2017-Sep-18 15:00N 30°04' W 093°21'0 0.0
2017-Sep-18 14:30N 30°04' W 093°21'0 0.0
2017-Sep-18 14:00N 30°04' W 093°21'0 0.0
2017-Sep-18 13:30N 30°04' W 093°21'0 0.0
2017-Sep-18 13:00N 30°04' W 093°21'0 0.0
2017-Sep-18 12:30N 30°04' W 093°21'0 0.0
2017-Sep-18 12:00N 30°04' W 093°21'0 0.0
2017-Sep-18 11:30N 30°04' W 093°21'0 0.0
2017-Sep-18 11:00N 30°04' W 093°21'0 0.0
2017-Sep-18 10:30N 30°04' W 093°21'0 0.0
2017-Sep-18 10:00N 30°04' W 093°21'0 0.0
2017-Sep-18 09:30N 30°04' W 093°21'0 0.0
2017-Sep-18 09:00N 30°04' W 093°21'0 0.0
2017-Sep-18 08:30N 30°04' W 093°21'0 0.0
2017-Sep-18 08:00N 30°04' W 093°21'0 0.0
2017-Sep-18 07:30N 30°04' W 093°21'0 0.0
2017-Sep-18 07:00N 30°04' W 093°21'0 0.0
2017-Sep-18 06:30N 30°04' W 093°21'0 0.0
2017-Sep-18 06:00N 30°04' W 093°21'0 0.0
2017-Sep-18 05:30N 30°04' W 093°21'0 0.0
2017-Sep-18 05:00N 30°04' W 093°21'0 0.0
2017-Sep-18 04:30N 30°04' W 093°21'0 0.0
2017-Sep-18 04:00N 30°04' W 093°21'0 0.0
2017-Sep-18 03:30N 30°04' W 093°21'0 0.0
2017-Sep-18 03:00N 30°04' W 093°21'0 0.0
2017-Sep-18 02:30N 30°04' W 093°21'0 0.0
2017-Sep-18 02:00N 30°04' W 093°21'0 0.0
2017-Sep-18 01:30N 30°04' W 093°21'0 0.0
2017-Sep-18 01:00N 30°04' W 093°21'0 0.0
2017-Sep-18 00:30N 30°04' W 093°21'0 0.2
2017-Sep-18 00:00N 30°04' W 093°21'0 0.1
2017-Sep-17 23:30N 30°04' W 093°21'0 0.1
2017-Sep-17 23:00N 30°04' W 093°21'0 0.0
2017-Sep-17 22:30N 30°04' W 093°21'1 1.4
2017-Sep-17 22:00N 30°04' W 093°22'1 1.4
2017-Sep-17 21:30N 30°04' W 093°21'0 0.0
2017-Sep-17 21:00N 30°04' W 093°21'0 0.0
2017-Sep-17 20:30N 30°04' W 093°21'0 0.0
2017-Sep-17 20:00N 30°04' W 093°21'0 1.0
2017-Sep-17 19:30N 30°04' W 093°22'0 0.4
2017-Sep-17 19:00N 30°04' W 093°22'0 0.1
2017-Sep-17 18:30N 30°04' W 093°22'0 0.2
2017-Sep-17 18:00N 30°04' W 093°22'1 1.0
2017-Sep-17 17:30N 30°04' W 093°21'0 0.0
2017-Sep-17 17:00N 30°04' W 093°21'0 0.0
2017-Sep-17 16:30N 30°04' W 093°21'0 0.0
2017-Sep-17 16:00N 30°04' W 093°21'0 0.0
2017-Sep-17 15:30N 30°04' W 093°21'0 0.0
2017-Sep-17 15:00N 30°04' W 093°21'0 0.0
2017-Sep-17 14:30N 30°04' W 093°21'0 0.0
2017-Sep-17 14:00N 30°04' W 093°21'0 0.0
2017-Sep-17 13:30N 30°04' W 093°21'0 0.0
2017-Sep-17 13:00N 30°04' W 093°21'0 0.0
2017-Sep-17 12:30N 30°04' W 093°21'0 0.0
2017-Sep-17 12:00N 30°04' W 093°21'0 0.0
2017-Sep-17 11:30N 30°04' W 093°21'0 0.0
2017-Sep-17 11:00N 30°04' W 093°21'0 0.0
2017-Sep-17 10:30N 30°04' W 093°21'0 0.0
2017-Sep-17 10:00N 30°04' W 093°21'0 0.0
2017-Sep-17 09:30N 30°04' W 093°21'0 0.0
2017-Sep-17 09:00N 30°04' W 093°21'0 0.0
2017-Sep-17 08:30N 30°04' W 093°21'0 0.0
2017-Sep-17 08:00N 30°04' W 093°21'0 0.0
2017-Sep-17 07:30N 30°04' W 093°21'0 0.0
2017-Sep-17 07:00N 30°04' W 093°21'0 0.0
2017-Sep-17 06:30N 30°04' W 093°21'0 0.0
2017-Sep-17 06:00N 30°04' W 093°21'0 0.0
2017-Sep-17 05:30N 30°04' W 093°21'0 0.0
2017-Sep-17 04:56N 30°04' W 093°21'0 0.0
2017-Sep-17 04:30N 30°04' W 093°21'0 0.0
2017-Sep-17 04:00N 30°04' W 093°21'0 0.0
2017-Sep-17 03:30N 30°04' W 093°21'0 0.0
2017-Sep-17 03:00N 30°04' W 093°21'0 0.0
2017-Sep-17 02:30N 30°04' W 093°21'0 0.0
2017-Sep-17 02:00N 30°04' W 093°21'0 0.0
2017-Sep-17 01:30N 30°04' W 093°21'0 0.0
2017-Sep-17 01:00N 30°04' W 093°21'0 0.0
2017-Sep-17 00:30N 30°04' W 093°21'0 0.0
2017-Sep-17 00:00N 30°04' W 093°21'0 0.0
2017-Sep-16 23:30N 30°04' W 093°21'0 0.0
2017-Sep-16 23:00N 30°04' W 093°21'0 0.0
2017-Sep-16 22:30N 30°04' W 093°21'0 0.0
2017-Sep-16 22:00N 30°04' W 093°21'0 0.0
2017-Sep-16 21:30N 30°04' W 093°21'0 0.0
2017-Sep-16 21:00N 30°04' W 093°21'2 3.5
2017-Sep-16 20:30N 30°05' W 093°20'2 3.3
2017-Sep-16 20:00N 30°06' W 093°19'0 0.5
2017-Sep-16 19:30N 30°06' W 093°18'2 3.3
2017-Sep-16 19:00N 30°05' W 093°17'1 1.2
2017-Sep-16 18:30N 30°05' W 093°17'2 3.2
2017-Sep-16 18:00N 30°06' W 093°18'2 3.0
2017-Sep-16 17:30N 30°06' W 093°20'4 7.1
2017-Sep-16 17:00N 30°10' W 093°19'4 7.4
2017-Sep-16 16:30N 30°12' W 093°17'2 4.9
2017-Sep-16 16:00N 30°14' W 093°15'1 1.7
2017-Sep-16 15:30N 30°15' W 093°14'2 3.4
2017-Sep-16 15:00N 30°15' W 093°12'0 0.2
2017-Sep-16 14:30N 30°15' W 093°12'1 2.5
2017-Sep-16 14:00N 30°15' W 093°13'1 1.4
2017-Sep-16 13:30N 30°15' W 093°14'1 2.9
2017-Sep-16 13:00N 30°14' W 093°15'1 2.1
2017-Sep-16 12:30N 30°13' W 093°15'0 0.0
2017-Sep-16 12:00N 30°13' W 093°15'0 0.0
2017-Sep-16 11:27N 30°13' W 093°15'2 3.9
2017-Sep-16 11:00N 30°12' W 093°17'3 7.0
2017-Sep-16 10:30N 30°10' W 093°19'1 2.2
2017-Sep-16 10:00N 30°09' W 093°20'0 0.1
2017-Sep-16 09:30N 30°09' W 093°20'2 4.4
2017-Sep-16 09:00N 30°07' W 093°20'3 5.7
2017-Sep-16 08:30N 30°04' W 093°21'0 0.7
2017-Sep-16 08:00N 30°04' W 093°21'0 0.0
2017-Sep-16 07:30N 30°04' W 093°21'0 0.0
2017-Sep-16 07:00N 30°04' W 093°21'0 0.0
2017-Sep-16 06:30N 30°04' W 093°21'0 0.0
2017-Sep-16 06:00N 30°04' W 093°21'0 0.0
2017-Sep-16 05:30N 30°04' W 093°21'0 0.0
2017-Sep-16 05:00N 30°04' W 093°21'0 0.0
2017-Sep-16 04:30N 30°04' W 093°21'0 0.0
2017-Sep-16 04:00N 30°04' W 093°21'0 0.0
2017-Sep-16 03:30N 30°04' W 093°21'0 0.0
2017-Sep-16 03:00N 30°04' W 093°21'0 0.0
2017-Sep-16 02:30N 30°04' W 093°21'0 0.0
2017-Sep-16 02:00N 30°04' W 093°21'0 0.0
2017-Sep-16 01:28N 30°04' W 093°21'0 0.0
2017-Sep-16 01:00N 30°04' W 093°21'2 3.3
2017-Sep-16 00:30N 30°05' W 093°20'4 7.8
2017-Sep-16 00:00N 30°09' W 093°20'4 7.8
2017-Sep-15 23:30N 30°12' W 093°17'2 4.7
2017-Sep-15 23:00N 30°13' W 093°15'0 0.0
2017-Sep-15 22:30N 30°13' W 093°15'0 0.0
2017-Sep-15 22:00N 30°13' W 093°15'0 0.0
2017-Sep-15 21:30N 30°13' W 093°15'0 0.0
2017-Sep-15 21:00N 30°13' W 093°15'0 0.1
2017-Sep-15 20:30N 30°13' W 093°15'1 2.8
2017-Sep-15 20:00N 30°12' W 093°16'2 4.4
2017-Sep-15 19:30N 30°11' W 093°18'2 3.9
2017-Sep-15 19:00N 30°09' W 093°20'2 3.8
2017-Sep-15 18:30N 30°08' W 093°20'2 3.7
2017-Sep-15 18:00N 30°06' W 093°20'1 1.7
2017-Sep-15 17:30N 30°05' W 093°20'0 0.1
2017-Sep-15 17:00N 30°05' W 093°20'2 3.5
2017-Sep-15 16:30N 30°04' W 093°21'0 0.5
2017-Sep-15 16:00N 30°04' W 093°21'0 0.9
2017-Sep-15 15:30N 30°04' W 093°22'0 0.9
2017-Sep-15 15:00N 30°04' W 093°21'0 0.0
2017-Sep-15 14:30N 30°04' W 093°21'0 0.0
2017-Sep-15 14:00N 30°04' W 093°21'0 0.0
2017-Sep-15 13:30N 30°04' W 093°21'0 0.0
2017-Sep-15 13:00N 30°04' W 093°21'0 0.0
2017-Sep-15 12:30N 30°04' W 093°21'0 0.0
2017-Sep-15 12:00N 30°04' W 093°21'0 0.0
2017-Sep-15 11:30N 30°04' W 093°21'0 0.0
2017-Sep-15 11:00N 30°04' W 093°21'0 0.0
2017-Sep-15 10:30N 30°04' W 093°21'0 0.0
2017-Sep-15 10:00N 30°04' W 093°21'0 0.0
2017-Sep-15 09:30N 30°04' W 093°21'0 0.0
2017-Sep-15 09:00N 30°04' W 093°21'0 0.0
2017-Sep-15 08:30N 30°04' W 093°21'0 0.0
2017-Sep-15 08:00N 30°04' W 093°21'0 0.0
2017-Sep-15 07:30N 30°04' W 093°21'0 0.0
2017-Sep-15 07:00N 30°04' W 093°21'0 0.0
2017-Sep-15 06:30N 30°04' W 093°21'0 0.0
2017-Sep-15 06:00N 30°04' W 093°21'0 0.0
2017-Sep-15 05:30N 30°04' W 093°21'0 0.0
2017-Sep-15 05:00N 30°04' W 093°21'0 0.0
2017-Sep-15 04:30N 30°04' W 093°21'0 0.0
2017-Sep-15 04:00N 30°04' W 093°21'0 0.0
2017-Sep-15 03:30N 30°04' W 093°21'0 0.0
2017-Sep-15 03:00N 30°04' W 093°21'0 0.0
2017-Sep-15 02:30N 30°04' W 093°21'0 0.0
2017-Sep-15 02:00N 30°04' W 093°21'0 0.0
2017-Sep-15 01:30N 30°04' W 093°21'0 0.0
2017-Sep-15 01:00N 30°04' W 093°21'0 0.0
2017-Sep-15 00:30N 30°04' W 093°21'0 0.0
2017-Sep-15 00:00N 30°04' W 093°21'0 0.0
2017-Sep-14 23:30N 30°04' W 093°21'0 0.0
2017-Sep-14 23:00N 30°04' W 093°21'0 0.0
2017-Sep-14 22:30N 30°04' W 093°21'0 0.0
2017-Sep-14 22:00N 30°04' W 093°21'0 0.0
2017-Sep-14 21:30N 30°04' W 093°21'0 0.0
2017-Sep-14 21:00N 30°04' W 093°21'0 0.0
2017-Sep-14 20:30N 30°04' W 093°21'0 0.0
2017-Sep-14 20:00N 30°04' W 093°21'0 0.0
2017-Sep-14 19:30N 30°04' W 093°21'0 0.0
2017-Sep-14 19:00N 30°04' W 093°21'0 0.0
2017-Sep-14 18:30N 30°04' W 093°21'0 0.0
2017-Sep-14 18:00N 30°04' W 093°21'0 0.0
2017-Sep-14 17:30N 30°04' W 093°21'0 0.0
2017-Sep-14 17:01N 30°04' W 093°21'0 0.0
2017-Sep-14 16:30N 30°04' W 093°21'0 0.2
2017-Sep-14 16:01N 30°04' W 093°21'0 0.2
2017-Sep-14 15:31N 30°04' W 093°21'0 0.0
2017-Sep-14 15:01N 30°04' W 093°21'0 0.0
2017-Sep-14 14:31N 30°04' W 093°21'0 0.0
2017-Sep-14 14:00N 30°04' W 093°21'0 0.0
2017-Sep-14 13:30N 30°04' W 093°21'0 0.0
2017-Sep-14 12:56N 30°04' W 093°21'0 0.0
2017-Sep-14 12:30N 30°04' W 093°21'0 1.0
2017-Sep-14 12:01N 30°04' W 093°21'0 1.0
2017-Sep-14 11:30N 30°04' W 093°21'0 0.0
2017-Sep-14 11:00N 30°04' W 093°21'0 0.0
2017-Sep-14 10:30N 30°04' W 093°21'0 0.0
2017-Sep-14 10:01N 30°04' W 093°21'0 0.0
2017-Sep-14 09:29N 30°04' W 093°21'0 0.0
2017-Sep-14 09:00N 30°04' W 093°21'0 0.1
2017-Sep-14 08:30N 30°04' W 093°21'1 3.0
2017-Sep-14 08:00N 30°05' W 093°20'3 5.3
2017-Sep-14 07:31N 30°07' W 093°20'2 4.7
2017-Sep-14 07:00N 30°10' W 093°19'1 1.6
2017-Sep-14 06:31N 30°09' W 093°20'3 5.9
2017-Sep-14 06:01N 30°06' W 093°20'2 4.1
2017-Sep-14 05:31N 30°04' W 093°21'1 2.1
2017-Sep-14 05:01N 30°04' W 093°22'0 0.4
2017-Sep-14 04:30N 30°04' W 093°21'0 0.0
2017-Sep-14 04:00N 30°04' W 093°21'0 0.0
2017-Sep-14 03:31N 30°04' W 093°21'0 0.0
2017-Sep-14 03:01N 30°04' W 093°21'0 0.0
2017-Sep-14 02:30N 30°04' W 093°21'0 0.0
2017-Sep-14 02:01N 30°04' W 093°21'0 0.0
2017-Sep-14 01:30N 30°04' W 093°21'0 0.0
2017-Sep-14 01:00N 30°04' W 093°21'0 0.0
2017-Sep-14 00:31N 30°04' W 093°21'0 0.0
2017-Sep-14 00:00N 30°04' W 093°21'0 0.0
2017-Sep-13 23:30N 30°04' W 093°21'0 0.0
2017-Sep-13 23:00N 30°04' W 093°21'0 0.0
2017-Sep-13 22:31N 30°04' W 093°21'0 0.0
2017-Sep-13 22:01N 30°04' W 093°21'0 0.0
2017-Sep-13 21:31N 30°04' W 093°21'0 0.3
2017-Sep-13 21:00N 30°04' W 093°21'0 0.3
2017-Sep-13 20:31N 30°04' W 093°21'0 0.1
2017-Sep-13 20:01N 30°04' W 093°21'0 0.0
2017-Sep-13 19:31N 30°04' W 093°21'1 1.4
2017-Sep-13 19:00N 30°04' W 093°22'1 1.5
2017-Sep-13 18:30N 30°04' W 093°21'2 3.0
2017-Sep-13 18:01N 30°05' W 093°20'3 5.8
2017-Sep-13 17:31N 30°08' W 093°20'3 6.3
2017-Sep-13 17:01N 30°11' W 093°19'3 6.3
2017-Sep-13 16:30N 30°12' W 093°16'1 3.0
2017-Sep-13 16:01N 30°14' W 093°15'0 0.0
2017-Sep-13 15:30N 30°14' W 093°15'0 0.0
2017-Sep-13 15:01N 30°14' W 093°15'0 0.0
2017-Sep-13 14:31N 30°14' W 093°15'0 0.0
2017-Sep-13 14:00N 30°14' W 093°15'0 0.0
2017-Sep-13 13:30N 30°14' W 093°15'0 0.0
2017-Sep-13 13:01N 30°14' W 093°15'0 0.0
2017-Sep-13 12:30N 30°14' W 093°15'0 0.0
2017-Sep-13 12:01N 30°14' W 093°15'0 0.0
2017-Sep-13 11:31N 30°14' W 093°15'0 0.0
2017-Sep-13 11:01N 30°14' W 093°15'0 0.0
2017-Sep-13 10:31N 30°14' W 093°15'0 0.0
2017-Sep-13 10:00N 30°14' W 093°15'0 0.0
2017-Sep-13 09:31N 30°14' W 093°15'0 0.0
2017-Sep-13 09:00N 30°14' W 093°15'0 0.0
2017-Sep-13 08:25N 30°14' W 093°15'0 0.0
2017-Sep-13 08:01N 30°14' W 093°15'0 0.0
2017-Sep-13 07:31N 30°14' W 093°15'0 0.0
2017-Sep-13 07:00N 30°14' W 093°15'0 0.0
2017-Sep-13 06:31N 30°14' W 093°15'0 0.0
2017-Sep-13 06:00N 30°14' W 093°15'0 0.0
2017-Sep-13 05:28N 30°14' W 093°15'0 0.0
2017-Sep-13 05:01N 30°14' W 093°15'0 0.0
2017-Sep-13 04:30N 30°14' W 093°15'0 0.0
2017-Sep-13 04:00N 30°14' W 093°15'0 0.0
2017-Sep-13 03:30N 30°14' W 093°15'0 0.0
2017-Sep-13 03:00N 30°14' W 093°15'0 0.0
2017-Sep-13 02:31N 30°14' W 093°15'0 0.0
2017-Sep-13 02:01N 30°14' W 093°15'0 0.0
2017-Sep-13 01:30N 30°14' W 093°15'0 0.0
2017-Sep-13 01:00N 30°14' W 093°15'0 0.0
2017-Sep-13 00:25N 30°14' W 093°15'0 0.0
2017-Sep-12 23:58N 30°14' W 093°15'0 0.0
2017-Sep-12 23:30N 30°14' W 093°15'0 0.7
2017-Sep-12 23:00N 30°14' W 093°15'3 5.8
2017-Sep-12 22:31N 30°12' W 093°18'3 6.0
2017-Sep-12 22:00N 30°09' W 093°20'3 5.5
2017-Sep-12 21:30N 30°06' W 093°20'3 6.2
2017-Sep-12 21:01N 30°04' W 093°21'0 0.1
2017-Sep-12 20:30N 30°04' W 093°21'0 0.0
2017-Sep-12 20:01N 30°04' W 093°21'0 0.0
2017-Sep-12 19:31N 30°04' W 093°21'0 0.0
2017-Sep-12 19:01N 30°04' W 093°21'0 0.0
2017-Sep-12 18:30N 30°04' W 093°21'0 0.5
2017-Sep-12 18:01N 30°04' W 093°22'0 0.0
2017-Sep-12 17:31N 30°04' W 093°22'0 0.0
2017-Sep-12 17:01N 30°04' W 093°22'0 0.5
2017-Sep-12 16:30N 30°04' W 093°21'0 0.2
2017-Sep-12 16:01N 30°04' W 093°21'0 0.0
2017-Sep-12 15:30N 30°04' W 093°21'0 0.0
2017-Sep-12 15:00N 30°04' W 093°21'0 0.0
2017-Sep-12 14:31N 30°04' W 093°21'1 1.0
2017-Sep-12 14:01N 30°04' W 093°22'1 0.1
2017-Sep-12 06:19N 30°04' W 093°21'0 0.0
2017-Sep-12 06:00N 30°04' W 093°21'0 0.0
2017-Sep-12 05:29N 30°04' W 093°21'0 0.0
2017-Sep-12 05:00N 30°04' W 093°21'0 0.0
2017-Sep-12 04:30N 30°04' W 093°21'0 0.0
2017-Sep-12 04:00N 30°04' W 093°21'0 0.0
2017-Sep-12 03:30N 30°04' W 093°21'0 0.0
2017-Sep-12 03:01N 30°04' W 093°21'0 0.0
2017-Sep-12 02:30N 30°04' W 093°21'0 0.0
2017-Sep-12 02:01N 30°04' W 093°21'0 0.0
2017-Sep-12 01:30N 30°04' W 093°21'0 0.7
2017-Sep-12 01:01N 30°04' W 093°22'0 0.5
2017-Sep-12 00:30N 30°04' W 093°22'0 0.4
2017-Sep-12 00:01N 30°04' W 093°22'0 0.4
2017-Sep-11 23:30N 30°04' W 093°22'0 0.5
2017-Sep-11 23:00N 30°04' W 093°21'0 0.0
2017-Sep-11 22:31N 30°04' W 093°21'0 0.2
2017-Sep-11 22:00N 30°04' W 093°21'0 0.0
2017-Sep-11 21:31N 30°04' W 093°21'0 0.9
2017-Sep-11 21:01N 30°04' W 093°22'0 0.9
2017-Sep-11 20:30N 30°04' W 093°21'0 0.0
2017-Sep-11 20:00N 30°04' W 093°21'0 0.0
2017-Sep-11 19:30N 30°04' W 093°21'0 0.0
2017-Sep-11 19:00N 30°04' W 093°21'0 0.0
2017-Sep-11 18:30N 30°04' W 093°21'0 0.0
2017-Sep-11 18:00N 30°04' W 093°21'0 0.0
2017-Sep-11 17:31N 30°04' W 093°21'0 0.0
2017-Sep-11 17:00N 30°04' W 093°21'0 0.0
2017-Sep-11 16:30N 30°04' W 093°21'0 0.0
2017-Sep-11 16:00N 30°04' W 093°21'0 0.0
2017-Sep-11 15:30N 30°04' W 093°21'0 0.0
2017-Sep-11 14:52N 30°04' W 093°21'0 0.0
2017-Sep-11 14:30N 30°04' W 093°21'0 0.0
2017-Sep-11 14:00N 30°04' W 093°21'0 0.0
2017-Sep-11 13:28N 30°04' W 093°21'0 0.0
2017-Sep-11 12:01N 30°04' W 093°21'0 0.0
2017-Sep-11 12:00N 30°04' W 093°21'0 0.0
2017-Sep-11 11:28N 30°04' W 093°21'0 0.0
2017-Sep-11 11:00N 30°04' W 093°21'0 0.0
2017-Sep-11 10:30N 30°04' W 093°21'0 0.0
2017-Sep-11 09:57N 30°04' W 093°21'0 0.0
2017-Sep-11 09:30N 30°04' W 093°21'0 0.0
2017-Sep-11 09:00N 30°04' W 093°21'0 0.0
2017-Sep-11 08:28N 30°04' W 093°21'0 0.0
2017-Sep-11 08:00N 30°04' W 093°21'0 0.0
2017-Sep-11 07:29N 30°04' W 093°21'0 0.0
2017-Sep-11 06:37N 30°04' W 093°21'0 0.0
2017-Sep-11 06:23N 30°04' W 093°21'0 0.0
2017-Sep-11 05:56N 30°04' W 093°21'0 0.0
2017-Sep-11 05:29N 30°04' W 093°21'0 0.0
2017-Sep-11 05:00N 30°04' W 093°21'0 0.0
2017-Sep-11 04:28N 30°04' W 093°21'0 0.0
2017-Sep-11 04:00N 30°04' W 093°21'0 0.0
2017-Sep-11 03:29N 30°04' W 093°21'0 0.0
2017-Sep-11 02:55N 30°04' W 093°21'0 0.0
2017-Sep-11 02:30N 30°04' W 093°21'0 0.0
2017-Sep-11 01:57N 30°04' W 093°21'0 0.0
2017-Sep-11 01:30N 30°04' W 093°21'0 0.0
2017-Sep-11 01:00N 30°04' W 093°21'0 0.0
2017-Sep-11 00:30N 30°04' W 093°21'0 0.0
2017-Sep-11 00:00N 30°04' W 093°21'1 1.5
2017-Sep-10 23:30N 30°04' W 093°22'0 0.0
2017-Sep-10 23:00N 30°04' W 093°22'0 0.1
2017-Sep-10 22:30N 30°04' W 093°22'1 1.2
2017-Sep-10 22:00N 30°04' W 093°21'1 1.3
2017-Sep-10 21:30N 30°04' W 093°22'0 0.1
2017-Sep-10 21:00N 30°04' W 093°22'0 0.1
2017-Sep-10 20:30N 30°04' W 093°22'1 1.5
2017-Sep-10 20:00N 30°04' W 093°23'0 0.9
2017-Sep-10 19:30N 30°04' W 093°23'1 1.8
2017-Sep-10 19:00N 30°04' W 093°22'0 0.1
2017-Sep-10 18:30N 30°04' W 093°22'0 0.2
2017-Sep-10 18:00N 30°04' W 093°21'0 0.5
2017-Sep-10 17:30N 30°04' W 093°22'0 0.3
2017-Sep-10 17:00N 30°04' W 093°22'0 0.1
2017-Sep-10 16:30N 30°04' W 093°22'0 0.8
2017-Sep-10 16:00N 30°04' W 093°21'3 6.0
2017-Sep-10 15:30N 30°06' W 093°19'2 4.0
2017-Sep-10 15:00N 30°05' W 093°17'0 0.2
2017-Sep-10 14:00N 30°05' W 093°17'2 1.9
2017-Sep-10 12:50N 30°06' W 093°19'2 5.0
2017-Sep-10 12:30N 30°04' W 093°20'1 2.1
2017-Sep-10 11:57N 30°04' W 093°21'0 0.1
2017-Sep-10 10:17N 30°04' W 093°21'0 0.1
2017-Sep-10 10:00N 30°04' W 093°21'0 0.7
2017-Sep-10 09:30N 30°04' W 093°22'0 1.0
2017-Sep-10 09:00N 30°04' W 093°21'0 0.0
2017-Sep-10 08:30N 30°04' W 093°21'0 0.0
2017-Sep-10 07:58N 30°04' W 093°21'0 0.0
2017-Sep-10 07:30N 30°04' W 093°21'0 0.0
2017-Sep-10 07:00N 30°04' W 093°21'0 0.0
2017-Sep-10 06:30N 30°04' W 093°21'0 0.1
2017-Sep-10 06:00N 30°04' W 093°21'3 5.5
2017-Sep-10 05:29N 30°06' W 093°19'1 1.8
2017-Sep-10 05:00N 30°06' W 093°18'0 0.1
2017-Sep-10 04:30N 30°06' W 093°18'2 3.5
2017-Sep-10 04:00N 30°05' W 093°17'1 1.7
2017-Sep-10 03:30N 30°04' W 093°16'1 2.5
2017-Sep-10 03:00N 30°05' W 093°17'2 4.6
2017-Sep-10 02:30N 30°05' W 093°20'3 5.0
2017-Sep-10 02:00N 30°04' W 093°22'0 0.0
2017-Sep-10 01:30N 30°04' W 093°22'0 0.0
2017-Sep-10 01:00N 30°04' W 093°22'0 0.0
2017-Sep-10 00:30N 30°04' W 093°22'0 0.0
2017-Sep-10 00:00N 30°04' W 093°22'  
Track history (hours):
 
Tides and Currents Weather Stations Pressure Air Temp Water Temp Dewpoint Dewpoint Depression Visibility Wind Speed Wind Dir Waves Ship Positions

Lil Al Cenac

Owner: Lil Al's Towing, Inc., Houma, LA. More information available from US FCC via Universal Licensing System and Coast Guard Vessel Documentation Center.

Last reported at 2017-Sep-20 00:00 UTC. Time now 2017-Sep-20 00:16 UTC.
Position N 30°04' W 093°21'.

Length 16 m; draft 2.3 m.

MMSI: 366997420.

Date/timePositionNaut miles runAvg speedWind from/ knotsBaromVisibWave heightAir tempDewpointWater temp
2017-Sep-20 00:00N 30°04' W 093°21'0 0.0
2017-Sep-19 23:30N 30°04' W 093°21'1 1.1
2017-Sep-19 23:00N 30°04' W 093°22'1 1.0
2017-Sep-19 22:30N 30°04' W 093°21'1 2.9
2017-Sep-19 22:00N 30°05' W 093°20'2 3.3
2017-Sep-19 21:30N 30°06' W 093°20'2 3.4
2017-Sep-19 21:00N 30°08' W 093°20'2 3.4
2017-Sep-19 20:30N 30°10' W 093°19'2 3.8
2017-Sep-19 20:00N 30°11' W 093°18'0 0.9
2017-Sep-19 19:30N 30°11' W 093°19'3 6.8
2017-Sep-19 19:00N 30°08' W 093°20'3 6.9
2017-Sep-19 18:30N 30°04' W 093°21'1 1.8
2017-Sep-19 18:00N 30°04' W 093°21'0 0.0
2017-Sep-19 17:30N 30°04' W 093°21'1 1.1
2017-Sep-19 17:00N 30°04' W 093°22'0 0.6
2017-Sep-19 16:30N 30°04' W 093°22'0 0.0
2017-Sep-19 16:00N 30°04' W 093°22'0 0.5
2017-Sep-19 15:30N 30°04' W 093°21'0 0.0
2017-Sep-19 15:00N 30°04' W 093°21'0 0.0
2017-Sep-19 14:30N 30°04' W 093°21'0 0.0
2017-Sep-19 14:00N 30°04' W 093°21'0 0.0
2017-Sep-19 13:30N 30°04' W 093°21'0 0.0
2017-Sep-19 13:00N 30°04' W 093°21'0 0.0
2017-Sep-19 12:30N 30°04' W 093°21'0 0.0
2017-Sep-19 12:00N 30°04' W 093°21'0 0.0
2017-Sep-19 11:30N 30°04' W 093°21'0 0.0
2017-Sep-19 11:00N 30°04' W 093°21'0 0.0
2017-Sep-19 10:30N 30°04' W 093°21'0 0.0
2017-Sep-19 10:00N 30°04' W 093°21'0 0.0
2017-Sep-19 09:30N 30°04' W 093°21'0 0.0
2017-Sep-19 09:00N 30°04' W 093°21'0 0.0
2017-Sep-19 08:30N 30°04' W 093°21'2 3.3
2017-Sep-19 08:00N 30°05' W 093°20'3 6.2
2017-Sep-19 07:30N 30°08' W 093°20'3 6.3
2017-Sep-19 07:00N 30°11' W 093°19'2 5.0
2017-Sep-19 06:30N 30°13' W 093°17'0 0.3
2017-Sep-19 06:00N 30°13' W 093°17'2 3.9
2017-Sep-19 05:30N 30°11' W 093°18'2 4.1
2017-Sep-19 05:00N 30°09' W 093°20'2 4.4
2017-Sep-19 04:30N 30°07' W 093°20'2 3.9
2017-Sep-19 04:00N 30°05' W 093°20'3 5.6
2017-Sep-19 03:30N 30°04' W 093°22'0 0.0
2017-Sep-19 03:00N 30°04' W 093°22'1 1.2
2017-Sep-19 02:30N 30°04' W 093°21'1 1.2
2017-Sep-19 02:00N 30°04' W 093°22'0 0.0
2017-Sep-19 01:30N 30°04' W 093°22'0 0.0
2017-Sep-19 01:00N 30°04' W 093°22'0 0.0
2017-Sep-19 00:30N 30°04' W 093°22'1 1.2
2017-Sep-19 00:00N 30°04' W 093°21'0 0.0
2017-Sep-18 23:30N 30°04' W 093°21'0 0.0
2017-Sep-18 23:00N 30°04' W 093°21'0 0.0
2017-Sep-18 22:30N 30°04' W 093°21'0 0.0
2017-Sep-18 22:00N 30°04' W 093°21'0 0.0
2017-Sep-18 21:30N 30°04' W 093°21'1 1.2
2017-Sep-18 21:00N 30°04' W 093°22'1 1.2
2017-Sep-18 20:30N 30°04' W 093°21'0 0.0
2017-Sep-18 20:00N 30°04' W 093°21'0 0.0
2017-Sep-18 19:30N 30°04' W 093°21'0 0.0
2017-Sep-18 19:00N 30°04' W 093°21'0 0.0
2017-Sep-18 18:30N 30°04' W 093°21'0 0.0
2017-Sep-18 18:00N 30°04' W 093°21'0 0.0
2017-Sep-18 17:30N 30°04' W 093°21'0 0.0
2017-Sep-18 17:00N 30°04' W 093°21'0 0.0
2017-Sep-18 16:30N 30°04' W 093°21'0 0.0
2017-Sep-18 16:00N 30°04' W 093°21'0 0.0
2017-Sep-18 15:30N 30°04' W 093°21'0 0.0
2017-Sep-18 15:00N 30°04' W 093°21'0 0.0
2017-Sep-18 14:30N 30°04' W 093°21'0 0.0
2017-Sep-18 14:00N 30°04' W 093°21'0 0.0
2017-Sep-18 13:30N 30°04' W 093°21'0 0.0
2017-Sep-18 13:00N 30°04' W 093°21'0 0.0
2017-Sep-18 12:30N 30°04' W 093°21'0 0.0
2017-Sep-18 12:00N 30°04' W 093°21'0 0.0
2017-Sep-18 11:30N 30°04' W 093°21'0 0.0
2017-Sep-18 11:00N 30°04' W 093°21'0 0.0
2017-Sep-18 10:30N 30°04' W 093°21'0 0.0
2017-Sep-18 10:00N 30°04' W 093°21'0 0.0
2017-Sep-18 09:30N 30°04' W 093°21'0 0.0
2017-Sep-18 09:00N 30°04' W 093°21'0 0.0
2017-Sep-18 08:30N 30°04' W 093°21'0 0.0
2017-Sep-18 08:00N 30°04' W 093°21'0 0.0
2017-Sep-18 07:30N 30°04' W 093°21'0 0.0
2017-Sep-18 07:00N 30°04' W 093°21'0 0.0
2017-Sep-18 06:30N 30°04' W 093°21'0 0.0
2017-Sep-18 06:00N 30°04' W 093°21'0 0.0
2017-Sep-18 05:30N 30°04' W 093°21'0 0.0
2017-Sep-18 05:00N 30°04' W 093°21'0 0.0
2017-Sep-18 04:30N 30°04' W 093°21'0 0.0
2017-Sep-18 04:00N 30°04' W 093°21'0 0.0
2017-Sep-18 03:30N 30°04' W 093°21'0 0.0
2017-Sep-18 03:00N 30°04' W 093°21'0 0.0
2017-Sep-18 02:30N 30°04' W 093°21'0 0.0
2017-Sep-18 02:00N 30°04' W 093°21'0 0.0
2017-Sep-18 01:30N 30°04' W 093°21'0 0.0
2017-Sep-18 01:00N 30°04' W 093°21'0 0.0
2017-Sep-18 00:30N 30°04' W 093°21'0 0.2
2017-Sep-18 00:00N 30°04' W 093°21'0 0.1
2017-Sep-17 23:30N 30°04' W 093°21'0 0.1
2017-Sep-17 23:00N 30°04' W 093°21'0 0.0
2017-Sep-17 22:30N 30°04' W 093°21'1 1.4
2017-Sep-17 22:00N 30°04' W 093°22'1 1.4
2017-Sep-17 21:30N 30°04' W 093°21'0 0.0
2017-Sep-17 21:00N 30°04' W 093°21'0 0.0
2017-Sep-17 20:30N 30°04' W 093°21'0 0.0
2017-Sep-17 20:00N 30°04' W 093°21'0 1.0
2017-Sep-17 19:30N 30°04' W 093°22'0 0.4
2017-Sep-17 19:00N 30°04' W 093°22'0 0.1
2017-Sep-17 18:30N 30°04' W 093°22'0 0.2
2017-Sep-17 18:00N 30°04' W 093°22'1 1.0
2017-Sep-17 17:30N 30°04' W 093°21'0 0.0
2017-Sep-17 17:00N 30°04' W 093°21'0 0.0
2017-Sep-17 16:30N 30°04' W 093°21'0 0.0
2017-Sep-17 16:00N 30°04' W 093°21'0 0.0
2017-Sep-17 15:30N 30°04' W 093°21'0 0.0
2017-Sep-17 15:00N 30°04' W 093°21'0 0.0
2017-Sep-17 14:30N 30°04' W 093°21'0 0.0
2017-Sep-17 14:00N 30°04' W 093°21'0 0.0
2017-Sep-17 13:30N 30°04' W 093°21'0 0.0
2017-Sep-17 13:00N 30°04' W 093°21'0 0.0
2017-Sep-17 12:30N 30°04' W 093°21'0 0.0
2017-Sep-17 12:00N 30°04' W 093°21'0 0.0
2017-Sep-17 11:30N 30°04' W 093°21'0 0.0
2017-Sep-17 11:00N 30°04' W 093°21'0 0.0
2017-Sep-17 10:30N 30°04' W 093°21'0 0.0
2017-Sep-17 10:00N 30°04' W 093°21'0 0.0
2017-Sep-17 09:30N 30°04' W 093°21'0 0.0
2017-Sep-17 09:00N 30°04' W 093°21'0 0.0
2017-Sep-17 08:30N 30°04' W 093°21'0 0.0
2017-Sep-17 08:00N 30°04' W 093°21'0 0.0
2017-Sep-17 07:30N 30°04' W 093°21'0 0.0
2017-Sep-17 07:00N 30°04' W 093°21'0 0.0
2017-Sep-17 06:30N 30°04' W 093°21'0 0.0
2017-Sep-17 06:00N 30°04' W 093°21'0 0.0
2017-Sep-17 05:30N 30°04' W 093°21'0 0.0
2017-Sep-17 04:56N 30°04' W 093°21'0 0.0
2017-Sep-17 04:30N 30°04' W 093°21'0 0.0
2017-Sep-17 04:00N 30°04' W 093°21'0 0.0
2017-Sep-17 03:30N 30°04' W 093°21'0 0.0
2017-Sep-17 03:00N 30°04' W 093°21'0 0.0
2017-Sep-17 02:30N 30°04' W 093°21'0 0.0
2017-Sep-17 02:00N 30°04' W 093°21'0 0.0
2017-Sep-17 01:30N 30°04' W 093°21'0 0.0
2017-Sep-17 01:00N 30°04' W 093°21'0 0.0
2017-Sep-17 00:30N 30°04' W 093°21'0 0.0
2017-Sep-17 00:00N 30°04' W 093°21'0 0.0
2017-Sep-16 23:30N 30°04' W 093°21'0 0.0
2017-Sep-16 23:00N 30°04' W 093°21'0 0.0
2017-Sep-16 22:30N 30°04' W 093°21'0 0.0
2017-Sep-16 22:00N 30°04' W 093°21'0 0.0
2017-Sep-16 21:30N 30°04' W 093°21'0 0.0
2017-Sep-16 21:00N 30°04' W 093°21'2 3.5
2017-Sep-16 20:30N 30°05' W 093°20'2 3.3
2017-Sep-16 20:00N 30°06' W 093°19'0 0.5
2017-Sep-16 19:30N 30°06' W 093°18'2 3.3
2017-Sep-16 19:00N 30°05' W 093°17'1 1.2
2017-Sep-16 18:30N 30°05' W 093°17'2 3.2
2017-Sep-16 18:00N 30°06' W 093°18'2 3.0
2017-Sep-16 17:30N 30°06' W 093°20'4 7.1
2017-Sep-16 17:00N 30°10' W 093°19'4 7.4
2017-Sep-16 16:30N 30°12' W 093°17'2 4.9
2017-Sep-16 16:00N 30°14' W 093°15'1 1.7
2017-Sep-16 15:30N 30°15' W 093°14'2 3.4
2017-Sep-16 15:00N 30°15' W 093°12'0 0.2
2017-Sep-16 14:30N 30°15' W 093°12'1 2.5
2017-Sep-16 14:00N 30°15' W 093°13'1 1.4
2017-Sep-16 13:30N 30°15' W 093°14'1 2.9
2017-Sep-16 13:00N 30°14' W 093°15'1 2.1
2017-Sep-16 12:30N 30°13' W 093°15'0 0.0
2017-Sep-16 12:00N 30°13' W 093°15'0 0.0
2017-Sep-16 11:27N 30°13' W 093°15'2 3.9
2017-Sep-16 11:00N 30°12' W 093°17'3 7.0
2017-Sep-16 10:30N 30°10' W 093°19'1 2.2
2017-Sep-16 10:00N 30°09' W 093°20'0 0.1
2017-Sep-16 09:30N 30°09' W 093°20'2 4.4
2017-Sep-16 09:00N 30°07' W 093°20'3 5.7
2017-Sep-16 08:30N 30°04' W 093°21'0 0.7
2017-Sep-16 08:00N 30°04' W 093°21'0 0.0
2017-Sep-16 07:30N 30°04' W 093°21'0 0.0
2017-Sep-16 07:00N 30°04' W 093°21'0 0.0
2017-Sep-16 06:30N 30°04' W 093°21'0 0.0
2017-Sep-16 06:00N 30°04' W 093°21'0 0.0
2017-Sep-16 05:30N 30°04' W 093°21'0 0.0
2017-Sep-16 05:00N 30°04' W 093°21'0 0.0
2017-Sep-16 04:30N 30°04' W 093°21'0 0.0
2017-Sep-16 04:00N 30°04' W 093°21'0 0.0
2017-Sep-16 03:30N 30°04' W 093°21'0 0.0
2017-Sep-16 03:00N 30°04' W 093°21'0 0.0
2017-Sep-16 02:30N 30°04' W 093°21'0 0.0
2017-Sep-16 02:00N 30°04' W 093°21'0 0.0
2017-Sep-16 01:28N 30°04' W 093°21'0 0.0
2017-Sep-16 01:00N 30°04' W 093°21'2 3.3
2017-Sep-16 00:30N 30°05' W 093°20'4 7.8
2017-Sep-16 00:00N 30°09' W 093°20'4 7.8
2017-Sep-15 23:30N 30°12' W 093°17'2 4.7
2017-Sep-15 23:00N 30°13' W 093°15'0 0.0
2017-Sep-15 22:30N 30°13' W 093°15'0 0.0
2017-Sep-15 22:00N 30°13' W 093°15'0 0.0
2017-Sep-15 21:30N 30°13' W 093°15'0 0.0
2017-Sep-15 21:00N 30°13' W 093°15'0 0.1
2017-Sep-15 20:30N 30°13' W 093°15'1 2.8
2017-Sep-15 20:00N 30°12' W 093°16'2 4.4
2017-Sep-15 19:30N 30°11' W 093°18'2 3.9
2017-Sep-15 19:00N 30°09' W 093°20'2 3.8
2017-Sep-15 18:30N 30°08' W 093°20'2 3.7
2017-Sep-15 18:00N 30°06' W 093°20'1 1.7
2017-Sep-15 17:30N 30°05' W 093°20'0 0.1
2017-Sep-15 17:00N 30°05' W 093°20'2 3.5
2017-Sep-15 16:30N 30°04' W 093°21'0 0.5
2017-Sep-15 16:00N 30°04' W 093°21'0 0.9
2017-Sep-15 15:30N 30°04' W 093°22'0 0.9
2017-Sep-15 15:00N 30°04' W 093°21'0 0.0
2017-Sep-15 14:30N 30°04' W 093°21'0 0.0
2017-Sep-15 14:00N 30°04' W 093°21'0 0.0
2017-Sep-15 13:30N 30°04' W 093°21'0 0.0
2017-Sep-15 13:00N 30°04' W 093°21'0 0.0
2017-Sep-15 12:30N 30°04' W 093°21'0 0.0
2017-Sep-15 12:00N 30°04' W 093°21'0 0.0
2017-Sep-15 11:30N 30°04' W 093°21'0 0.0
2017-Sep-15 11:00N 30°04' W 093°21'0 0.0
2017-Sep-15 10:30N 30°04' W 093°21'0 0.0
2017-Sep-15 10:00N 30°04' W 093°21'0 0.0
2017-Sep-15 09:30N 30°04' W 093°21'0 0.0
2017-Sep-15 09:00N 30°04' W 093°21'0 0.0
2017-Sep-15 08:30N 30°04' W 093°21'0 0.0
2017-Sep-15 08:00N 30°04' W 093°21'0 0.0
2017-Sep-15 07:30N 30°04' W 093°21'0 0.0
2017-Sep-15 07:00N 30°04' W 093°21'0 0.0
2017-Sep-15 06:30N 30°04' W 093°21'0 0.0
2017-Sep-15 06:00N 30°04' W 093°21'0 0.0
2017-Sep-15 05:30N 30°04' W 093°21'0 0.0
2017-Sep-15 05:00N 30°04' W 093°21'0 0.0
2017-Sep-15 04:30N 30°04' W 093°21'0 0.0
2017-Sep-15 04:00N 30°04' W 093°21'0 0.0
2017-Sep-15 03:30N 30°04' W 093°21'0 0.0
2017-Sep-15 03:00N 30°04' W 093°21'0 0.0
2017-Sep-15 02:30N 30°04' W 093°21'0 0.0
2017-Sep-15 02:00N 30°04' W 093°21'0 0.0
2017-Sep-15 01:30N 30°04' W 093°21'0 0.0
2017-Sep-15 01:00N 30°04' W 093°21'0 0.0
2017-Sep-15 00:30N 30°04' W 093°21'0 0.0
2017-Sep-15 00:00N 30°04' W 093°21'0 0.0
2017-Sep-14 23:30N 30°04' W 093°21'0 0.0
2017-Sep-14 23:00N 30°04' W 093°21'0 0.0
2017-Sep-14 22:30N 30°04' W 093°21'0 0.0
2017-Sep-14 22:00N 30°04' W 093°21'0 0.0
2017-Sep-14 21:30N 30°04' W 093°21'0 0.0
2017-Sep-14 21:00N 30°04' W 093°21'0 0.0
2017-Sep-14 20:30N 30°04' W 093°21'0 0.0
2017-Sep-14 20:00N 30°04' W 093°21'0 0.0
2017-Sep-14 19:30N 30°04' W 093°21'0 0.0
2017-Sep-14 19:00N 30°04' W 093°21'0 0.0
2017-Sep-14 18:30N 30°04' W 093°21'0 0.0
2017-Sep-14 18:00N 30°04' W 093°21'0 0.0
2017-Sep-14 17:30N 30°04' W 093°21'0 0.0
2017-Sep-14 17:01N 30°04' W 093°21'0 0.0
2017-Sep-14 16:30N 30°04' W 093°21'0 0.2
2017-Sep-14 16:01N 30°04' W 093°21'0 0.2
2017-Sep-14 15:31N 30°04' W 093°21'0 0.0
2017-Sep-14 15:01N 30°04' W 093°21'0 0.0
2017-Sep-14 14:31N 30°04' W 093°21'0 0.0
2017-Sep-14 14:00N 30°04' W 093°21'0 0.0
2017-Sep-14 13:30N 30°04' W 093°21'0 0.0
2017-Sep-14 12:56N 30°04' W 093°21'0 0.0
2017-Sep-14 12:30N 30°04' W 093°21'0 1.0
2017-Sep-14 12:01N 30°04' W 093°21'0 1.0
2017-Sep-14 11:30N 30°04' W 093°21'0 0.0
2017-Sep-14 11:00N 30°04' W 093°21'0 0.0
2017-Sep-14 10:30N 30°04' W 093°21'0 0.0
2017-Sep-14 10:01N 30°04' W 093°21'0 0.0
2017-Sep-14 09:29N 30°04' W 093°21'0 0.0
2017-Sep-14 09:00N 30°04' W 093°21'0 0.1
2017-Sep-14 08:30N 30°04' W 093°21'1 3.0
2017-Sep-14 08:00N 30°05' W 093°20'3 5.3
2017-Sep-14 07:31N 30°07' W 093°20'2 4.7
2017-Sep-14 07:00N 30°10' W 093°19'1 1.6
2017-Sep-14 06:31N 30°09' W 093°20'3 5.9
2017-Sep-14 06:01N 30°06' W 093°20'2 4.1
2017-Sep-14 05:31N 30°04' W 093°21'1 2.1
2017-Sep-14 05:01N 30°04' W 093°22'0 0.4
2017-Sep-14 04:30N 30°04' W 093°21'0 0.0
2017-Sep-14 04:00N 30°04' W 093°21'0 0.0
2017-Sep-14 03:31N 30°04' W 093°21'0 0.0
2017-Sep-14 03:01N 30°04' W 093°21'0 0.0
2017-Sep-14 02:30N 30°04' W 093°21'0 0.0
2017-Sep-14 02:01N 30°04' W 093°21'0 0.0
2017-Sep-14 01:30N 30°04' W 093°21'0 0.0
2017-Sep-14 01:00N 30°04' W 093°21'0 0.0
2017-Sep-14 00:31N 30°04' W 093°21'0 0.0
2017-Sep-14 00:00N 30°04' W 093°21'0 0.0
2017-Sep-13 23:30N 30°04' W 093°21'0 0.0
2017-Sep-13 23:00N 30°04' W 093°21'0 0.0
2017-Sep-13 22:31N 30°04' W 093°21'0 0.0
2017-Sep-13 22:01N 30°04' W 093°21'0 0.0
2017-Sep-13 21:31N 30°04' W 093°21'0 0.3
2017-Sep-13 21:00N 30°04' W 093°21'0 0.3
2017-Sep-13 20:31N 30°04' W 093°21'0 0.1
2017-Sep-13 20:01N 30°04' W 093°21'0 0.0
2017-Sep-13 19:31N 30°04' W 093°21'1 1.4
2017-Sep-13 19:00N 30°04' W 093°22'1 1.5
2017-Sep-13 18:30N 30°04' W 093°21'2 3.0
2017-Sep-13 18:01N 30°05' W 093°20'3 5.8
2017-Sep-13 17:31N 30°08' W 093°20'3 6.3
2017-Sep-13 17:01N 30°11' W 093°19'3 6.3
2017-Sep-13 16:30N 30°12' W 093°16'1 3.0
2017-Sep-13 16:01N 30°14' W 093°15'0 0.0
2017-Sep-13 15:30N 30°14' W 093°15'0 0.0
2017-Sep-13 15:01N 30°14' W 093°15'0 0.0
2017-Sep-13 14:31N 30°14' W 093°15'0 0.0
2017-Sep-13 14:00N 30°14' W 093°15'0 0.0
2017-Sep-13 13:30N 30°14' W 093°15'0 0.0
2017-Sep-13 13:01N 30°14' W 093°15'0 0.0
2017-Sep-13 12:30N 30°14' W 093°15'0 0.0
2017-Sep-13 12:01N 30°14' W 093°15'0 0.0
2017-Sep-13 11:31N 30°14' W 093°15'0 0.0
2017-Sep-13 11:01N 30°14' W 093°15'0 0.0
2017-Sep-13 10:31N 30°14' W 093°15'0 0.0
2017-Sep-13 10:00N 30°14' W 093°15'0 0.0
2017-Sep-13 09:31N 30°14' W 093°15'0 0.0
2017-Sep-13 09:00N 30°14' W 093°15'0 0.0
2017-Sep-13 08:25N 30°14' W 093°15'0 0.0
2017-Sep-13 08:01N 30°14' W 093°15'0 0.0
2017-Sep-13 07:31N 30°14' W 093°15'0 0.0
2017-Sep-13 07:00N 30°14' W 093°15'0 0.0
2017-Sep-13 06:31N 30°14' W 093°15'0 0.0
2017-Sep-13 06:00N 30°14' W 093°15'0 0.0
2017-Sep-13 05:28N 30°14' W 093°15'0 0.0
2017-Sep-13 05:01N 30°14' W 093°15'0 0.0
2017-Sep-13 04:30N 30°14' W 093°15'0 0.0
2017-Sep-13 04:00N 30°14' W 093°15'0 0.0
2017-Sep-13 03:30N 30°14' W 093°15'0 0.0
2017-Sep-13 03:00N 30°14' W 093°15'0 0.0
2017-Sep-13 02:31N 30°14' W 093°15'0 0.0
2017-Sep-13 02:01N 30°14' W 093°15'0 0.0
2017-Sep-13 01:30N 30°14' W 093°15'0 0.0
2017-Sep-13 01:00N 30°14' W 093°15'0 0.0
2017-Sep-13 00:25N 30°14' W 093°15'0 0.0
2017-Sep-12 23:58N 30°14' W 093°15'0 0.0
2017-Sep-12 23:30N 30°14' W 093°15'0 0.7
2017-Sep-12 23:00N 30°14' W 093°15'3 5.8
2017-Sep-12 22:31N 30°12' W 093°18'3 6.0
2017-Sep-12 22:00N 30°09' W 093°20'3 5.5
2017-Sep-12 21:30N 30°06' W 093°20'3 6.2
2017-Sep-12 21:01N 30°04' W 093°21'0 0.1
2017-Sep-12 20:30N 30°04' W 093°21'0 0.0
2017-Sep-12 20:01N 30°04' W 093°21'0 0.0
2017-Sep-12 19:31N 30°04' W 093°21'0 0.0
2017-Sep-12 19:01N 30°04' W 093°21'0 0.0
2017-Sep-12 18:30N 30°04' W 093°21'0 0.5
2017-Sep-12 18:01N 30°04' W 093°22'0 0.0
2017-Sep-12 17:31N 30°04' W 093°22'0 0.0
2017-Sep-12 17:01N 30°04' W 093°22'0 0.5
2017-Sep-12 16:30N 30°04' W 093°21'0 0.2
2017-Sep-12 16:01N 30°04' W 093°21'0 0.0
2017-Sep-12 15:30N 30°04' W 093°21'0 0.0
2017-Sep-12 15:00N 30°04' W 093°21'0 0.0
2017-Sep-12 14:31N 30°04' W 093°21'1 1.0
2017-Sep-12 14:01N 30°04' W 093°22'1 0.1
2017-Sep-12 06:19N 30°04' W 093°21'0 0.0
2017-Sep-12 06:00N 30°04' W 093°21'0 0.0
2017-Sep-12 05:29N 30°04' W 093°21'0 0.0
2017-Sep-12 05:00N 30°04' W 093°21'0 0.0
2017-Sep-12 04:30N 30°04' W 093°21'0 0.0
2017-Sep-12 04:00N 30°04' W 093°21'0 0.0
2017-Sep-12 03:30N 30°04' W 093°21'0 0.0
2017-Sep-12 03:01N 30°04' W 093°21'0 0.0
2017-Sep-12 02:30N 30°04' W 093°21'0 0.0
2017-Sep-12 02:01N 30°04' W 093°21'0 0.0
2017-Sep-12 01:30N 30°04' W 093°21'0 0.7
2017-Sep-12 01:01N 30°04' W 093°22'0 0.5
2017-Sep-12 00:30N 30°04' W 093°22'0 0.4
2017-Sep-12 00:01N 30°04' W 093°22'0 0.4
2017-Sep-11 23:30N 30°04' W 093°22'0 0.5
2017-Sep-11 23:00N 30°04' W 093°21'0 0.0
2017-Sep-11 22:31N 30°04' W 093°21'0 0.2
2017-Sep-11 22:00N 30°04' W 093°21'0 0.0
2017-Sep-11 21:31N 30°04' W 093°21'0 0.9
2017-Sep-11 21:01N 30°04' W 093°22'0 0.9
2017-Sep-11 20:30N 30°04' W 093°21'0 0.0
2017-Sep-11 20:00N 30°04' W 093°21'0 0.0
2017-Sep-11 19:30N 30°04' W 093°21'0 0.0
2017-Sep-11 19:00N 30°04' W 093°21'0 0.0
2017-Sep-11 18:30N 30°04' W 093°21'0 0.0
2017-Sep-11 18:00N 30°04' W 093°21'0 0.0
2017-Sep-11 17:31N 30°04' W 093°21'0 0.0
2017-Sep-11 17:00N 30°04' W 093°21'0 0.0
2017-Sep-11 16:30N 30°04' W 093°21'0 0.0
2017-Sep-11 16:00N 30°04' W 093°21'0 0.0
2017-Sep-11 15:30N 30°04' W 093°21'0 0.0
2017-Sep-11 14:52N 30°04' W 093°21'0 0.0
2017-Sep-11 14:30N 30°04' W 093°21'0 0.0
2017-Sep-11 14:00N 30°04' W 093°21'0 0.0
2017-Sep-11 13:28N 30°04' W 093°21'0 0.0
2017-Sep-11 12:01N 30°04' W 093°21'0 0.0
2017-Sep-11 12:00N 30°04' W 093°21'0 0.0
2017-Sep-11 11:28N 30°04' W 093°21'0 0.0
2017-Sep-11 11:00N 30°04' W 093°21'0 0.0
2017-Sep-11 10:30N 30°04' W 093°21'0 0.0
2017-Sep-11 09:57N 30°04' W 093°21'0 0.0
2017-Sep-11 09:30N 30°04' W 093°21'0 0.0
2017-Sep-11 09:00N 30°04' W 093°21'0 0.0
2017-Sep-11 08:28N 30°04' W 093°21'0 0.0
2017-Sep-11 08:00N 30°04' W 093°21'0 0.0
2017-Sep-11 07:29N 30°04' W 093°21'0 0.0
2017-Sep-11 06:37N 30°04' W 093°21'0 0.0
2017-Sep-11 06:23N 30°04' W 093°21'0 0.0
2017-Sep-11 05:56N 30°04' W 093°21'0 0.0
2017-Sep-11 05:29N 30°04' W 093°21'0 0.0
2017-Sep-11 05:00N 30°04' W 093°21'0 0.0
2017-Sep-11 04:28N 30°04' W 093°21'0 0.0
2017-Sep-11 04:00N 30°04' W 093°21'0 0.0
2017-Sep-11 03:29N 30°04' W 093°21'0 0.0
2017-Sep-11 02:55N 30°04' W 093°21'0 0.0
2017-Sep-11 02:30N 30°04' W 093°21'0 0.0
2017-Sep-11 01:57N 30°04' W 093°21'0 0.0
2017-Sep-11 01:30N 30°04' W 093°21'0 0.0
2017-Sep-11 01:00N 30°04' W 093°21'0 0.0
2017-Sep-11 00:30N 30°04' W 093°21'0 0.0
2017-Sep-11 00:00N 30°04' W 093°21'1 1.5
2017-Sep-10 23:30N 30°04' W 093°22'0 0.0
2017-Sep-10 23:00N 30°04' W 093°22'0 0.1
2017-Sep-10 22:30N 30°04' W 093°22'1 1.2
2017-Sep-10 22:00N 30°04' W 093°21'1 1.3
2017-Sep-10 21:30N 30°04' W 093°22'0 0.1
2017-Sep-10 21:00N 30°04' W 093°22'0 0.1
2017-Sep-10 20:30N 30°04' W 093°22'1 1.5
2017-Sep-10 20:00N 30°04' W 093°23'0 0.9
2017-Sep-10 19:30N 30°04' W 093°23'1 1.8
2017-Sep-10 19:00N 30°04' W 093°22'0 0.1
2017-Sep-10 18:30N 30°04' W 093°22'0 0.2
2017-Sep-10 18:00N 30°04' W 093°21'0 0.5
2017-Sep-10 17:30N 30°04' W 093°22'0 0.3
2017-Sep-10 17:00N 30°04' W 093°22'0 0.1
2017-Sep-10 16:30N 30°04' W 093°22'0 0.8
2017-Sep-10 16:00N 30°04' W 093°21'3 6.0
2017-Sep-10 15:30N 30°06' W 093°19'2 4.0
2017-Sep-10 15:00N 30°05' W 093°17'0 0.2
2017-Sep-10 14:00N 30°05' W 093°17'2 1.9
2017-Sep-10 12:50N 30°06' W 093°19'2 5.0
2017-Sep-10 12:30N 30°04' W 093°20'1 2.1
2017-Sep-10 11:57N 30°04' W 093°21'0 0.1
2017-Sep-10 10:17N 30°04' W 093°21'0 0.1
2017-Sep-10 10:00N 30°04' W 093°21'0 0.7
2017-Sep-10 09:30N 30°04' W 093°22'0 1.0
2017-Sep-10 09:00N 30°04' W 093°21'0 0.0
2017-Sep-10 08:30N 30°04' W 093°21'0 0.0
2017-Sep-10 07:58N 30°04' W 093°21'0 0.0
2017-Sep-10 07:30N 30°04' W 093°21'0 0.0
2017-Sep-10 07:00N 30°04' W 093°21'0 0.0
2017-Sep-10 06:30N 30°04' W 093°21'0 0.1
2017-Sep-10 06:00N 30°04' W 093°21'3 5.5
2017-Sep-10 05:29N 30°06' W 093°19'1 1.8
2017-Sep-10 05:00N 30°06' W 093°18'0 0.1
2017-Sep-10 04:30N 30°06' W 093°18'2 3.5
2017-Sep-10 04:00N 30°05' W 093°17'1 1.7
2017-Sep-10 03:30N 30°04' W 093°16'1 2.5
2017-Sep-10 03:00N 30°05' W 093°17'2 4.6
2017-Sep-10 02:30N 30°05' W 093°20'3 5.0
2017-Sep-10 02:00N 30°04' W 093°22'0 0.0
2017-Sep-10 01:30N 30°04' W 093°22'0 0.0
2017-Sep-10 01:00N 30°04' W 093°22'0 0.0
2017-Sep-10 00:30N 30°04' W 093°22'0 0.0
2017-Sep-10 00:00N 30°04' W 093°22'  

Dump ship's entire track history